createdAt,value
2022-08-12T00:00:37.159Z,17.21
2022-08-12T00:02:03.576Z,17.25
2022-08-12T00:02:38.224Z,17.19
2022-08-12T00:03:37.174Z,17.16
2022-08-12T00:04:37.063Z,17.15
2022-08-12T00:05:37.056Z,17.11
2022-08-12T00:06:37.066Z,17.06
2022-08-12T00:07:37.026Z,17.00
2022-08-12T00:08:37.230Z,16.98
2022-08-12T00:09:37.004Z,16.98
2022-08-12T00:10:36.999Z,17.00
2022-08-12T00:11:36.983Z,17.00
2022-08-12T00:12:36.976Z,16.96
2022-08-12T00:13:36.960Z,16.98
2022-08-12T00:14:37.067Z,16.94
2022-08-12T00:15:36.935Z,16.86
2022-08-12T00:16:36.933Z,16.85
2022-08-12T00:17:37.060Z,16.86
2022-08-12T00:18:36.927Z,16.98
2022-08-12T00:19:36.921Z,16.91
2022-08-12T00:20:36.884Z,16.93
2022-08-12T00:21:36.871Z,16.89
2022-08-12T00:22:36.860Z,16.89
2022-08-12T00:23:36.851Z,16.88
2022-08-12T00:24:36.871Z,16.81
2022-08-12T00:26:00.521Z,16.86
2022-08-12T00:26:37.818Z,16.82
2022-08-12T00:27:43.479Z,16.76
2022-08-12T00:28:37.794Z,16.82
2022-08-12T00:29:36.804Z,16.79
2022-08-12T00:30:36.775Z,16.76
2022-08-12T00:31:36.781Z,16.70
2022-08-12T00:32:36.856Z,16.71
2022-08-12T00:33:51.731Z,16.61
2022-08-12T00:34:37.724Z,16.61
2022-08-12T00:35:37.020Z,16.60
2022-08-12T00:36:36.727Z,16.61
2022-08-12T00:37:36.695Z,16.66
2022-08-12T00:38:36.686Z,16.61
2022-08-12T00:39:36.843Z,16.66
2022-08-12T00:40:36.661Z,16.61
2022-08-12T00:41:36.651Z,16.57
2022-08-12T00:42:36.669Z,16.46
2022-08-12T00:43:36.632Z,16.57
2022-08-12T00:44:36.639Z,16.52
2022-08-12T00:45:36.607Z,16.48
2022-08-12T00:46:36.639Z,16.53
2022-08-12T00:47:36.602Z,16.60
2022-08-12T00:48:36.596Z,16.46
2022-08-12T00:49:36.559Z,16.46
2022-08-12T00:50:36.555Z,16.42
2022-08-12T00:51:36.538Z,16.46
2022-08-12T00:52:36.550Z,16.46
2022-08-12T00:53:36.552Z,16.48
2022-08-12T00:54:36.512Z,16.48
2022-08-12T00:55:36.495Z,16.42
2022-08-12T00:56:36.485Z,16.46
2022-08-12T00:57:36.627Z,16.48
2022-08-12T00:58:36.496Z,16.49
2022-08-12T00:59:36.469Z,16.52
2022-08-12T01:00:36.439Z,16.48
2022-08-12T01:02:01.050Z,16.35
2022-08-12T01:02:37.417Z,16.35
2022-08-12T01:03:36.406Z,16.38
2022-08-12T01:04:36.417Z,16.34
2022-08-12T01:05:36.383Z,16.34
2022-08-12T01:06:36.375Z,16.34
2022-08-12T01:07:36.362Z,16.38
2022-08-12T01:08:36.350Z,16.34
2022-08-12T01:09:36.360Z,16.31
2022-08-12T01:10:36.329Z,16.28
2022-08-12T01:11:36.317Z,16.23
2022-08-12T01:12:36.308Z,16.23
2022-08-12T01:13:36.301Z,16.12
2022-08-12T01:14:36.308Z,16.15
2022-08-12T01:15:36.272Z,16.11
2022-08-12T01:16:36.260Z,16.14
2022-08-12T01:17:36.250Z,16.11
2022-08-12T01:18:36.262Z,16.07
2022-08-12T01:19:36.234Z,16.07
2022-08-12T01:20:36.218Z,16.05
2022-08-12T01:21:36.226Z,16.07
2022-08-12T01:22:36.198Z,16.07
2022-08-12T01:23:36.196Z,16.05
2022-08-12T01:24:36.174Z,15.97
2022-08-12T01:25:39.739Z,15.90
2022-08-12T01:26:37.169Z,15.96
2022-08-12T01:27:36.144Z,15.87
2022-08-12T01:28:36.132Z,15.90
2022-08-12T01:29:36.120Z,15.90
2022-08-12T01:30:36.107Z,15.86
2022-08-12T01:31:36.114Z,15.86
2022-08-12T01:32:36.084Z,15.87
2022-08-12T01:33:36.073Z,15.78
2022-08-12T01:34:37.608Z,15.74
2022-08-12T01:35:36.070Z,15.76
2022-08-12T01:36:36.047Z,15.75
2022-08-12T01:37:36.031Z,15.69
2022-08-12T01:38:36.025Z,15.78
2022-08-12T01:39:36.107Z,15.68
2022-08-12T01:40:38.644Z,15.78
2022-08-12T01:41:35.984Z,15.72
2022-08-12T01:42:35.997Z,15.69
2022-08-12T01:43:35.961Z,15.69
2022-08-12T01:44:35.949Z,15.72
2022-08-12T01:45:42.946Z,15.82
2022-08-12T01:46:36.928Z,15.72
2022-08-12T01:47:35.942Z,15.68
2022-08-12T01:48:35.906Z,15.67
2022-08-12T01:49:35.895Z,15.51
2022-08-12T01:50:35.887Z,15.57
2022-08-12T01:52:07.475Z,15.56
2022-08-12T01:52:36.998Z,15.46
2022-08-12T01:53:50.173Z,15.49
2022-08-12T01:54:36.843Z,15.51
2022-08-12T01:55:35.826Z,15.46
2022-08-12T01:56:35.819Z,15.41
2022-08-12T01:57:58.084Z,15.41
2022-08-12T01:58:36.840Z,15.34
2022-08-12T01:59:35.782Z,15.39
2022-08-12T02:00:44.976Z,15.35
2022-08-12T02:01:36.821Z,15.31
2022-08-12T02:02:35.858Z,15.35
2022-08-12T02:03:35.758Z,15.36
2022-08-12T02:04:35.729Z,15.32
2022-08-12T02:05:35.720Z,15.29
2022-08-12T02:06:35.729Z,15.34
2022-08-12T02:07:35.694Z,15.31
2022-08-12T02:08:35.721Z,15.28
2022-08-12T02:09:35.671Z,15.28
2022-08-12T02:10:50.802Z,15.28
2022-08-12T02:11:36.660Z,15.19
2022-08-12T02:12:35.689Z,15.19
2022-08-12T02:13:48.626Z,15.25
2022-08-12T02:14:36.635Z,15.06
2022-08-12T02:15:35.606Z,15.20
2022-08-12T02:16:35.594Z,15.20
2022-08-12T02:17:55.744Z,15.13
2022-08-12T02:18:36.573Z,15.20
2022-08-12T02:19:35.582Z,15.14
2022-08-12T02:20:51.996Z,15.07
2022-08-12T02:21:36.534Z,15.10
2022-08-12T02:22:35.566Z,15.03
2022-08-12T02:23:35.532Z,15.03
2022-08-12T02:24:35.528Z,15.07
2022-08-12T02:25:35.490Z,15.09
2022-08-12T02:26:35.485Z,15.03
2022-08-12T02:27:35.472Z,15.07
2022-08-12T02:28:35.489Z,15.09
2022-08-12T02:29:35.447Z,15.06
2022-08-12T02:30:42.374Z,15.02
2022-08-12T02:31:36.420Z,15.02
2022-08-12T02:32:35.507Z,14.95
2022-08-12T02:33:35.422Z,14.99
2022-08-12T02:34:35.393Z,14.95
2022-08-12T02:35:35.406Z,14.91
2022-08-12T02:36:35.985Z,14.95
2022-08-12T02:37:35.358Z,14.94
2022-08-12T02:38:35.350Z,14.94
2022-08-12T02:39:35.361Z,14.91
2022-08-12T02:40:35.348Z,14.77
2022-08-12T02:41:35.312Z,14.78
2022-08-12T02:42:35.351Z,14.73
2022-08-12T02:43:35.290Z,14.77
2022-08-12T02:44:35.281Z,14.86
2022-08-12T02:45:35.289Z,14.73
2022-08-12T02:46:35.280Z,14.75
2022-08-12T02:48:00.711Z,14.77
2022-08-12T02:48:36.232Z,14.70
2022-08-12T02:49:35.220Z,14.73
2022-08-12T02:50:35.214Z,14.70
2022-08-12T02:51:35.201Z,14.64
2022-08-12T02:52:35.223Z,14.61
2022-08-12T02:53:35.201Z,14.69
2022-08-12T02:54:35.169Z,14.65
2022-08-12T02:55:35.362Z,14.55
2022-08-12T02:56:35.151Z,14.58
2022-08-12T02:57:35.134Z,14.65
2022-08-12T02:58:35.286Z,14.52
2022-08-12T02:59:35.113Z,14.47
2022-08-12T03:00:35.109Z,14.50
2022-08-12T03:01:35.333Z,14.47
2022-08-12T03:02:35.136Z,14.46
2022-08-12T03:03:35.066Z,14.45
2022-08-12T03:04:36.375Z,14.39
2022-08-12T03:05:38.608Z,14.45
2022-08-12T03:06:36.034Z,14.35
2022-08-12T03:07:59.590Z,14.40
2022-08-12T03:08:36.010Z,14.40
2022-08-12T03:10:03.701Z,14.36
2022-08-12T03:10:37.749Z,14.32
2022-08-12T03:11:37.737Z,14.35
2022-08-12T03:12:36.075Z,14.27
2022-08-12T03:13:35.960Z,14.35
2022-08-12T03:14:34.967Z,14.25
2022-08-12T03:15:34.954Z,14.27
2022-08-12T03:16:36.930Z,14.21
2022-08-12T03:17:34.911Z,14.27
2022-08-12T03:18:34.922Z,14.28
2022-08-12T03:19:34.888Z,14.28
2022-08-12T03:20:34.878Z,14.24
2022-08-12T03:21:57.855Z,14.27
2022-08-12T03:22:35.874Z,14.20
2022-08-12T03:23:34.864Z,14.25
2022-08-12T03:24:34.832Z,14.20
2022-08-12T03:25:34.820Z,14.21
2022-08-12T03:26:34.811Z,14.22
2022-08-12T03:27:34.824Z,14.25
2022-08-12T03:28:34.787Z,14.20
2022-08-12T03:29:50.075Z,14.14
2022-08-12T03:30:35.768Z,14.22
2022-08-12T03:31:34.753Z,14.18
2022-08-12T03:32:35.761Z,14.15
2022-08-12T03:33:34.730Z,14.12
2022-08-12T03:34:34.721Z,14.20
2022-08-12T03:35:41.477Z,14.15
2022-08-12T03:36:35.938Z,14.10
2022-08-12T03:37:34.706Z,14.18
2022-08-12T03:38:34.676Z,14.22
2022-08-12T03:39:36.196Z,14.14
2022-08-12T03:40:34.655Z,14.20
2022-08-12T03:41:34.674Z,14.02
2022-08-12T03:42:34.633Z,14.09
2022-08-12T03:43:34.619Z,14.12
2022-08-12T03:44:34.609Z,14.15
2022-08-12T03:45:34.597Z,14.12
2022-08-12T03:46:35.609Z,14.10
2022-08-12T03:47:34.575Z,14.14
2022-08-12T03:48:34.563Z,14.02
2022-08-12T03:49:34.556Z,14.14
2022-08-12T03:50:34.541Z,14.14
2022-08-12T03:51:34.531Z,14.02
2022-08-12T03:52:34.596Z,14.04
2022-08-12T03:53:34.532Z,14.04
2022-08-12T03:54:35.786Z,14.02
2022-08-12T03:55:34.483Z,13.97
2022-08-12T03:56:34.473Z,13.96
2022-08-12T03:57:34.486Z,13.95
2022-08-12T03:58:34.452Z,13.99
2022-08-12T03:59:34.444Z,14.00
2022-08-12T04:00:34.563Z,13.99
2022-08-12T04:01:40.850Z,13.92
2022-08-12T04:02:35.510Z,13.89
2022-08-12T04:03:34.397Z,13.88
2022-08-12T04:04:34.384Z,13.89
2022-08-12T04:05:55.377Z,13.81
2022-08-12T04:06:36.024Z,13.81
2022-08-12T04:07:34.358Z,13.82
2022-08-12T04:08:34.364Z,13.79
2022-08-12T04:09:34.329Z,13.71
2022-08-12T04:10:34.316Z,13.73
2022-08-12T04:11:34.332Z,13.84
2022-08-12T04:12:35.540Z,13.79
2022-08-12T04:13:34.307Z,13.78
2022-08-12T04:14:34.271Z,13.81
2022-08-12T04:15:34.259Z,13.87
2022-08-12T04:16:34.245Z,13.81
2022-08-12T04:17:34.262Z,13.88
2022-08-12T04:18:34.222Z,13.85
2022-08-12T04:19:34.217Z,13.85
2022-08-12T04:20:34.202Z,13.88
2022-08-12T04:21:34.193Z,13.85
2022-08-12T04:22:34.177Z,13.91
2022-08-12T04:23:34.189Z,13.81
2022-08-12T04:24:34.157Z,13.81
2022-08-12T04:25:34.167Z,13.81
2022-08-12T04:26:34.135Z,13.81
2022-08-12T04:27:34.127Z,13.87
2022-08-12T04:28:34.114Z,13.87
2022-08-12T04:30:21.225Z,13.89
2022-08-12T04:30:35.086Z,13.88
2022-08-12T04:31:34.100Z,13.85
2022-08-12T04:32:34.068Z,13.88
2022-08-12T04:33:34.058Z,13.91
2022-08-12T04:34:34.045Z,13.96
2022-08-12T04:35:34.064Z,13.95
2022-08-12T04:36:34.023Z,13.91
2022-08-12T04:37:58.776Z,13.95
2022-08-12T04:38:35.018Z,14.02
2022-08-12T04:39:34.067Z,14.04
2022-08-12T04:40:34.005Z,14.02
2022-08-12T04:41:33.968Z,13.97
2022-08-12T04:42:33.957Z,13.97
2022-08-12T04:43:55.342Z,13.99
2022-08-12T04:44:34.932Z,13.99
2022-08-12T04:45:33.950Z,13.97
2022-08-12T04:46:34.758Z,13.99
2022-08-12T04:47:33.900Z,13.96
2022-08-12T04:48:33.889Z,14.00
2022-08-12T04:49:33.878Z,14.07
2022-08-12T04:50:36.927Z,14.02
2022-08-12T04:51:33.875Z,14.00
2022-08-12T04:52:35.035Z,14.03
2022-08-12T04:53:33.833Z,14.07
2022-08-12T04:54:33.821Z,13.99
2022-08-12T04:55:33.830Z,14.06
2022-08-12T04:56:35.425Z,14.10
2022-08-12T04:57:33.788Z,13.96
2022-08-12T04:58:33.784Z,14.12
2022-08-12T04:59:43.686Z,14.09
2022-08-12T05:00:34.755Z,14.02
2022-08-12T05:01:33.747Z,14.00
2022-08-12T05:02:33.860Z,14.04
2022-08-12T05:03:46.097Z,14.09
2022-08-12T05:04:34.708Z,14.15
2022-08-12T05:05:36.083Z,14.12
2022-08-12T05:06:33.708Z,14.17
2022-08-12T05:07:33.678Z,14.09
2022-08-12T05:08:33.665Z,14.18
2022-08-12T05:10:00.795Z,14.18
2022-08-12T05:10:36.073Z,14.10
2022-08-12T05:11:33.633Z,14.18
2022-08-12T05:12:33.641Z,14.22
2022-08-12T05:13:33.609Z,14.09
2022-08-12T05:14:37.524Z,14.17
2022-08-12T05:15:33.589Z,14.21
2022-08-12T05:16:34.303Z,14.21
2022-08-12T05:17:33.585Z,14.21
2022-08-12T05:18:33.559Z,14.36
2022-08-12T05:19:33.575Z,14.24
2022-08-12T05:20:33.533Z,14.33
2022-08-12T05:21:33.522Z,14.35
2022-08-12T05:22:37.094Z,14.43
2022-08-12T05:23:33.499Z,14.47
2022-08-12T05:24:33.506Z,14.51
2022-08-12T05:25:33.476Z,14.45
2022-08-12T05:26:33.464Z,14.46
2022-08-12T05:27:33.477Z,14.58
2022-08-12T05:28:33.440Z,14.69
2022-08-12T05:30:05.689Z,14.68
2022-08-12T05:30:34.421Z,14.73
2022-08-12T05:31:40.569Z,14.72
2022-08-12T05:32:34.427Z,14.80
2022-08-12T05:33:33.387Z,14.78
2022-08-12T05:34:33.376Z,14.78
2022-08-12T05:35:33.364Z,14.94
2022-08-12T05:36:33.352Z,14.89
2022-08-12T05:37:33.343Z,14.92
2022-08-12T05:38:33.353Z,15.09
2022-08-12T05:39:33.360Z,15.09
2022-08-12T05:40:33.308Z,15.14
2022-08-12T05:41:33.299Z,15.19
2022-08-12T05:42:34.451Z,15.20
2022-08-12T05:43:33.276Z,15.29
2022-08-12T05:44:33.283Z,15.34
2022-08-12T05:45:33.256Z,15.34
2022-08-12T05:46:33.251Z,15.36
2022-08-12T05:47:52.302Z,15.34
2022-08-12T05:48:34.216Z,15.47
2022-08-12T05:49:33.229Z,15.57
2022-08-12T05:50:33.197Z,15.67
2022-08-12T05:51:40.895Z,15.67
2022-08-12T05:52:34.173Z,15.71
2022-08-12T05:53:33.166Z,15.78
2022-08-12T05:54:56.286Z,15.90
2022-08-12T05:55:34.146Z,15.97
2022-08-12T05:56:33.152Z,16.08
2022-08-12T05:57:33.123Z,16.17
2022-08-12T05:58:33.108Z,16.33
2022-08-12T05:59:33.118Z,16.42
2022-08-12T06:00:33.088Z,16.64
2022-08-12T06:02:12.666Z,17.07
2022-08-12T06:02:34.063Z,17.58
2022-08-12T06:03:33.102Z,18.14
2022-08-12T06:04:33.069Z,18.45
2022-08-12T06:05:33.032Z,18.84
2022-08-12T06:06:36.560Z,19.08
2022-08-12T06:07:59.447Z,19.33
2022-08-12T06:08:33.996Z,19.61
2022-08-12T06:09:33.063Z,19.87
2022-08-12T06:10:33.271Z,20.11
2022-08-12T06:11:32.986Z,20.14
2022-08-12T06:12:32.952Z,20.32
2022-08-12T06:13:53.196Z,20.31
2022-08-12T06:14:33.930Z,20.24
2022-08-12T06:15:32.932Z,20.23
2022-08-12T06:16:32.911Z,20.29
2022-08-12T06:17:32.920Z,20.24
2022-08-12T06:18:32.889Z,20.16
2022-08-12T06:20:27.290Z,20.20
2022-08-12T06:20:34.399Z,20.13
2022-08-12T06:21:32.855Z,20.16
2022-08-12T06:22:32.869Z,20.17
2022-08-12T06:23:32.839Z,20.26
2022-08-12T06:24:32.821Z,20.39
2022-08-12T06:25:32.813Z,20.33
2022-08-12T06:26:32.798Z,20.47
2022-08-12T06:27:32.791Z,20.39
2022-08-12T06:28:32.799Z,20.38
2022-08-12T06:30:07.350Z,20.57
2022-08-12T06:30:37.889Z,20.66
2022-08-12T06:31:33.747Z,20.55
2022-08-12T06:32:32.733Z,20.58
2022-08-12T06:33:55.427Z,20.38
2022-08-12T06:35:25.183Z,20.29
2022-08-12T06:35:48.100Z,20.33
2022-08-12T06:36:33.891Z,20.31
2022-08-12T06:37:32.682Z,20.36
2022-08-12T06:38:32.665Z,20.29
2022-08-12T06:39:32.715Z,20.36
2022-08-12T06:40:32.664Z,20.28
2022-08-12T06:41:32.635Z,20.35
2022-08-12T06:42:33.545Z,20.33
2022-08-12T06:44:06.119Z,20.41
2022-08-12T06:44:33.599Z,20.50
2022-08-12T06:45:45.700Z,20.64
2022-08-12T06:46:33.597Z,20.39
2022-08-12T06:47:32.573Z,20.47
2022-08-12T06:48:32.556Z,20.50
2022-08-12T06:49:32.547Z,20.67
2022-08-12T06:50:34.748Z,20.72
2022-08-12T06:51:32.786Z,20.70
2022-08-12T06:52:32.514Z,20.64
2022-08-12T06:53:32.502Z,20.59
2022-08-12T06:54:32.536Z,20.72
2022-08-12T06:55:32.483Z,20.91
2022-08-12T06:57:02.416Z,20.94
2022-08-12T06:58:07.525Z,20.95
2022-08-12T06:58:33.443Z,20.98
2022-08-12T06:59:32.561Z,21.13
2022-08-12T07:00:33.023Z,21.10
2022-08-12T07:01:32.476Z,21.12
2022-08-12T07:02:36.736Z,21.14
2022-08-12T07:03:32.390Z,21.12
2022-08-12T07:04:37.314Z,21.21
2022-08-12T07:05:33.389Z,21.31
2022-08-12T07:06:32.354Z,21.35
2022-08-12T07:07:32.347Z,21.54
2022-08-12T07:08:32.333Z,21.61
2022-08-12T07:10:01.370Z,21.65
2022-08-12T07:10:33.330Z,21.64
2022-08-12T07:11:32.300Z,21.67
2022-08-12T07:12:32.554Z,21.86
2022-08-12T07:13:32.310Z,22.02
2022-08-12T07:14:32.291Z,22.22
2022-08-12T07:15:32.261Z,22.43
2022-08-12T07:16:32.272Z,22.55
2022-08-12T07:17:32.236Z,22.39
2022-08-12T07:18:32.225Z,22.30
2022-08-12T07:19:40.390Z,22.49
2022-08-12T07:20:51.732Z,22.76
2022-08-12T07:21:59.885Z,22.90
2022-08-12T07:22:33.191Z,23.05
2022-08-12T07:23:32.177Z,23.13
2022-08-12T07:24:32.183Z,23.23
2022-08-12T07:25:37.183Z,23.33
2022-08-12T07:26:33.135Z,23.53
2022-08-12T07:27:32.149Z,23.61
2022-08-12T07:28:32.137Z,23.65
2022-08-12T07:30:02.510Z,23.76
2022-08-12T07:30:33.092Z,23.88
2022-08-12T07:31:32.085Z,23.98
2022-08-12T07:32:32.079Z,23.90
2022-08-12T07:33:32.358Z,24.12
2022-08-12T07:34:32.048Z,24.25
2022-08-12T07:35:32.038Z,24.37
2022-08-12T07:36:32.054Z,24.52
2022-08-12T07:37:32.017Z,24.35
2022-08-12T07:38:32.011Z,24.47
2022-08-12T07:39:32.046Z,24.43
2022-08-12T07:40:31.983Z,24.47
2022-08-12T07:41:31.996Z,24.67
2022-08-12T07:42:31.962Z,24.87
2022-08-12T07:43:31.954Z,24.98
2022-08-12T07:44:31.945Z,25.03
2022-08-12T07:45:31.950Z,25.17
2022-08-12T07:46:31.917Z,25.15
2022-08-12T07:47:31.912Z,25.23
2022-08-12T07:48:31.897Z,25.27
2022-08-12T07:49:31.889Z,25.10
2022-08-12T07:50:32.894Z,25.23
2022-08-12T07:51:31.865Z,25.15
2022-08-12T07:52:32.004Z,24.93
2022-08-12T07:53:31.851Z,25.13
2022-08-12T07:54:31.852Z,25.38
2022-08-12T07:55:31.825Z,25.54
2022-08-12T07:56:31.818Z,25.62
2022-08-12T07:57:31.820Z,25.60
2022-08-12T07:58:31.788Z,25.67
2022-08-12T07:59:31.778Z,25.85
2022-08-12T08:00:31.765Z,25.95
2022-08-12T08:01:31.864Z,26.12
2022-08-12T08:02:31.755Z,26.29
2022-08-12T08:03:31.733Z,26.45
2022-08-12T08:04:31.748Z,26.51
2022-08-12T08:05:31.743Z,26.67
2022-08-12T08:06:31.706Z,26.87
2022-08-12T08:07:31.731Z,26.91
2022-08-12T08:08:31.688Z,26.75
2022-08-12T08:09:31.669Z,26.76
2022-08-12T08:10:31.661Z,26.75
2022-08-12T08:11:31.648Z,26.73
2022-08-12T08:12:31.673Z,26.63
2022-08-12T08:13:31.648Z,26.70
2022-08-12T08:14:31.615Z,26.82
2022-08-12T08:16:00.594Z,26.95
2022-08-12T08:16:32.597Z,27.17
2022-08-12T08:17:31.602Z,27.22
2022-08-12T08:18:31.574Z,27.22
2022-08-12T08:19:31.562Z,27.14
2022-08-12T08:20:31.558Z,27.28
2022-08-12T08:21:31.543Z,27.31
2022-08-12T08:22:41.819Z,27.54
2022-08-12T08:23:35.135Z,27.78
2022-08-12T08:24:31.541Z,27.63
2022-08-12T08:25:36.070Z,27.72
2022-08-12T08:26:32.560Z,27.93
2022-08-12T08:27:31.485Z,28.18
2022-08-12T08:28:31.465Z,28.29
2022-08-12T08:29:31.462Z,28.55
2022-08-12T08:30:31.450Z,28.83
2022-08-12T08:31:31.454Z,28.90
2022-08-12T08:32:31.489Z,28.90
2022-08-12T08:34:09.193Z,28.96
2022-08-12T08:34:53.865Z,28.95
2022-08-12T08:35:46.202Z,29.05
2022-08-12T08:36:32.602Z,28.71
2022-08-12T08:37:33.422Z,28.33
2022-08-12T08:38:35.366Z,28.56
2022-08-12T08:39:31.367Z,28.49
2022-08-12T08:40:31.337Z,28.31
2022-08-12T08:42:17.737Z,28.59
2022-08-12T08:42:32.424Z,28.83
2022-08-12T08:43:44.140Z,28.93
2022-08-12T08:44:32.294Z,29.15
2022-08-12T08:45:31.280Z,29.41
2022-08-12T08:46:31.292Z,29.65
2022-08-12T08:47:31.286Z,29.82
2022-08-12T08:48:31.268Z,29.85
2022-08-12T08:49:31.238Z,29.76
2022-08-12T08:50:31.231Z,29.94
2022-08-12T08:51:31.218Z,29.86
2022-08-12T08:52:40.424Z,29.83
2022-08-12T08:53:32.196Z,29.70
2022-08-12T08:54:31.189Z,29.79
2022-08-12T08:55:54.262Z,29.90
2022-08-12T08:56:32.167Z,29.90
2022-08-12T08:57:43.140Z,29.94
2022-08-12T08:58:32.170Z,30.07
2022-08-12T08:59:31.135Z,30.22
2022-08-12T09:00:31.130Z,30.31
2022-08-12T09:01:37.376Z,30.60
2022-08-12T09:02:32.211Z,30.60
2022-08-12T09:05:10.023Z,30.27
2022-08-12T09:05:13.566Z,29.97
2022-08-12T09:06:01.472Z,30.08
2022-08-12T09:06:37.763Z,30.42
2022-08-12T09:07:51.655Z,30.65
2022-08-12T09:08:32.057Z,30.45
2022-08-12T09:10:02.985Z,30.53
2022-08-12T09:10:32.663Z,30.60
2022-08-12T09:12:07.593Z,30.80
2022-08-12T09:12:32.018Z,31.13
2022-08-12T09:14:10.630Z,31.31
2022-08-12T09:14:31.971Z,31.48
2022-08-12T09:15:35.277Z,31.31
2022-08-12T09:16:30.954Z,31.26
2022-08-12T09:17:43.008Z,31.38
2022-08-12T09:18:33.258Z,31.38
2022-08-12T09:19:30.922Z,31.38
2022-08-12T09:20:30.914Z,31.43
2022-08-12T09:21:30.902Z,31.41
2022-08-12T09:22:31.891Z,31.31
2022-08-12T09:23:59.955Z,31.23
2022-08-12T09:24:32.012Z,30.97
2022-08-12T09:25:32.534Z,30.95
2022-08-12T09:26:30.878Z,31.13
2022-08-12T09:27:30.838Z,31.12
2022-08-12T09:28:31.925Z,31.17
2022-08-12T09:30:10.745Z,31.02
2022-08-12T09:30:42.243Z,30.84
2022-08-12T09:32:02.873Z,30.84
2022-08-12T09:33:04.242Z,30.98
2022-08-12T09:34:28.602Z,31.21
2022-08-12T09:34:33.296Z,31.21
2022-08-12T09:35:30.756Z,31.32
2022-08-12T09:36:58.364Z,31.26
2022-08-12T09:37:57.658Z,30.92
2022-08-12T09:38:32.091Z,30.65
2022-08-12T09:40:03.265Z,30.76
2022-08-12T09:40:57.611Z,30.94
2022-08-12T09:42:33.453Z,31.21
2022-08-12T09:42:41.174Z,31.23
2022-08-12T09:43:31.756Z,31.29
2022-08-12T09:44:39.476Z,31.06
2022-08-12T09:46:06.630Z,30.94
2022-08-12T09:46:31.665Z,31.02
2022-08-12T09:47:33.554Z,30.73
2022-08-12T09:48:35.004Z,30.79
2022-08-12T09:49:31.610Z,30.83
2022-08-12T09:50:30.618Z,30.86
2022-08-12T09:51:37.792Z,30.70
2022-08-12T09:52:31.937Z,31.04
2022-08-12T09:53:36.294Z,31.29
2022-08-12T09:54:34.719Z,31.46
2022-08-12T09:56:06.301Z,31.38
2022-08-12T09:57:01.631Z,31.48
2022-08-12T09:58:46.072Z,31.21
2022-08-12T09:58:57.008Z,30.95
2022-08-12T10:00:15.435Z,31.21
2022-08-12T10:00:43.183Z,31.57
2022-08-12T10:01:35.531Z,31.75
2022-08-12T10:02:44.156Z,31.56
2022-08-12T10:03:33.193Z,31.51
2022-08-12T10:04:30.533Z,31.56
2022-08-12T10:06:20.230Z,31.75
2022-08-12T10:06:35.918Z,31.84
2022-08-12T10:07:39.441Z,31.69
2022-08-12T10:08:31.414Z,31.85
2022-08-12T10:09:57.502Z,31.81
2022-08-12T10:10:31.386Z,31.62
2022-08-12T10:11:30.398Z,31.14
2022-08-12T10:13:06.763Z,31.29
2022-08-12T10:13:35.210Z,31.54
2022-08-12T10:14:34.267Z,31.70
2022-08-12T10:16:02.342Z,31.54
2022-08-12T10:16:36.798Z,31.28
2022-08-12T10:17:31.320Z,31.32
2022-08-12T10:18:30.311Z,31.19
2022-08-12T10:19:36.496Z,31.14
2022-08-12T10:20:31.283Z,31.23
2022-08-12T10:21:36.283Z,31.31
2022-08-12T10:22:38.802Z,31.28
2022-08-12T10:23:39.216Z,30.53
2022-08-12T10:24:31.249Z,30.54
2022-08-12T10:26:35.747Z,30.98
2022-08-12T10:26:36.911Z,31.12
2022-08-12T10:27:39.300Z,31.12
2022-08-12T10:28:31.205Z,30.98
2022-08-12T10:30:38.783Z,31.13
2022-08-12T10:30:40.260Z,31.26
2022-08-12T10:31:46.951Z,31.63
2022-08-12T10:32:44.038Z,31.53
2022-08-12T10:33:32.244Z,31.44
2022-08-12T10:34:30.141Z,31.25
2022-08-12T10:35:37.717Z,31.29
2022-08-12T10:36:36.141Z,31.13
2022-08-12T10:38:33.694Z,31.41
2022-08-12T10:38:37.478Z,31.23
2022-08-12T10:40:00.632Z,31.38
2022-08-12T10:40:33.142Z,31.29
2022-08-12T10:41:57.111Z,31.10
2022-08-12T10:42:31.058Z,31.14
2022-08-12T10:43:30.070Z,30.95
2022-08-12T10:44:31.087Z,31.13
2022-08-12T10:45:30.438Z,31.44
2022-08-12T10:46:30.471Z,31.34
2022-08-12T10:48:19.771Z,31.25
2022-08-12T10:48:33.886Z,31.21
2022-08-12T10:50:03.350Z,31.25
2022-08-12T10:50:56.358Z,31.57
2022-08-12T10:52:03.939Z,31.66
2022-08-12T10:52:33.827Z,31.56
2022-08-12T10:53:46.040Z,31.69
2022-08-12T10:54:30.935Z,31.75
2022-08-12T10:55:29.925Z,31.68
2022-08-12T10:56:34.866Z,31.57
2022-08-12T10:58:14.487Z,31.26
2022-08-12T10:58:31.957Z,31.12
2022-08-12T11:00:29.033Z,30.79
2022-08-12T11:00:35.728Z,30.82
2022-08-12T11:04:19.434Z,30.39
2022-08-12T11:04:22.743Z,30.29
2022-08-12T11:04:26.955Z,29.94
2022-08-12T11:04:39.628Z,30.08
2022-08-12T11:07:05.760Z,30.04
2022-08-12T11:07:06.193Z,30.31
2022-08-12T11:08:36.832Z,30.73
2022-08-12T11:08:37.229Z,31.17
2022-08-12T11:09:41.964Z,30.95
2022-08-12T11:10:30.882Z,30.86
2022-08-12T11:12:36.688Z,30.67
2022-08-12T11:12:55.067Z,30.95
2022-08-12T11:13:45.848Z,31.10
2022-08-12T11:14:49.489Z,31.12
2022-08-12T11:16:04.292Z,31.10
2022-08-12T11:16:30.729Z,31.16
2022-08-12T11:17:43.319Z,31.09
2022-08-12T11:18:30.685Z,30.94
2022-08-12T11:19:30.319Z,30.83
2022-08-12T11:20:31.223Z,30.82
2022-08-12T11:21:56.165Z,30.88
2022-08-12T11:22:34.370Z,30.45
2022-08-12T11:23:36.828Z,30.22
2022-08-12T11:24:32.312Z,30.20
2022-08-12T11:25:55.817Z,30.27
2022-08-12T11:26:30.621Z,30.27
2022-08-12T11:27:29.702Z,30.67
2022-08-12T11:28:33.995Z,31.17
2022-08-12T11:30:01.562Z,31.31
2022-08-12T11:30:32.105Z,31.48
2022-08-12T11:31:29.553Z,31.66
2022-08-12T11:32:30.561Z,31.93
2022-08-12T11:34:04.970Z,31.99
2022-08-12T11:34:52.685Z,31.62
2022-08-12T11:35:30.506Z,31.41
2022-08-12T11:36:29.469Z,31.47
2022-08-12T11:37:29.457Z,31.51
2022-08-12T11:38:30.468Z,31.41
2022-08-12T11:39:46.504Z,31.41
2022-08-12T11:40:30.428Z,31.16
2022-08-12T11:41:32.031Z,30.99
2022-08-12T11:42:32.581Z,31.17
2022-08-12T11:43:30.805Z,31.19
2022-08-12T11:44:37.186Z,31.19
2022-08-12T11:45:30.390Z,31.26
2022-08-12T11:46:30.534Z,31.41
2022-08-12T11:47:29.357Z,31.31
2022-08-12T11:48:50.891Z,31.36
2022-08-12T11:49:31.512Z,31.23
2022-08-12T11:50:32.272Z,31.25
2022-08-12T11:51:36.353Z,31.01
2022-08-12T11:52:55.130Z,30.92
2022-08-12T11:53:57.591Z,31.04
2022-08-12T11:54:30.658Z,31.04
2022-08-12T11:55:29.619Z,31.07
2022-08-12T11:56:38.276Z,30.99
2022-08-12T11:58:13.650Z,31.04
2022-08-12T11:59:34.775Z,31.17
2022-08-12T12:01:58.318Z,31.32
2022-08-12T12:02:30.274Z,31.12
2022-08-12T12:03:43.901Z,31.20
2022-08-12T12:04:30.210Z,31.35
2022-08-12T12:05:41.977Z,31.20
2022-08-12T12:06:30.167Z,31.26
2022-08-12T12:08:35.968Z,31.39
2022-08-12T12:08:37.369Z,31.32
2022-08-12T12:09:30.157Z,31.48
2022-08-12T12:10:30.125Z,31.31
2022-08-12T12:11:48.844Z,31.16
2022-08-12T12:12:30.105Z,30.57
2022-08-12T12:14:08.005Z,30.42
2022-08-12T12:14:38.127Z,30.46
2022-08-12T12:15:40.775Z,30.70
2022-08-12T12:16:30.071Z,30.77
2022-08-12T12:17:38.311Z,30.72
2022-08-12T12:18:30.999Z,30.80
2022-08-12T12:19:29.038Z,30.77
2022-08-12T12:20:30.476Z,30.65
2022-08-12T12:21:47.771Z,30.69
2022-08-12T12:22:30.963Z,30.57
2022-08-12T12:23:29.531Z,30.54
2022-08-12T12:24:28.984Z,30.64
2022-08-12T12:25:59.278Z,30.64
2022-08-12T12:26:34.853Z,30.82
2022-08-12T12:28:00.704Z,30.84
2022-08-12T12:28:37.235Z,30.95
2022-08-12T12:30:19.596Z,31.07
2022-08-12T12:30:30.446Z,31.21
2022-08-12T12:32:10.774Z,31.23
2022-08-12T12:32:31.021Z,31.14
2022-08-12T12:33:57.264Z,30.97
2022-08-12T12:34:30.688Z,30.83
2022-08-12T12:36:17.102Z,30.73
2022-08-12T12:36:30.896Z,30.80
2022-08-12T12:38:04.590Z,30.83
2022-08-12T12:38:29.852Z,30.69
2022-08-12T12:39:28.900Z,30.64
2022-08-12T12:40:29.996Z,30.54
2022-08-12T12:42:42.498Z,30.51
2022-08-12T12:42:42.817Z,30.46
2022-08-12T12:43:43.303Z,30.47
2022-08-12T12:44:38.883Z,30.38
2022-08-12T12:45:32.323Z,30.24
2022-08-12T12:46:28.782Z,30.32
2022-08-12T12:47:30.160Z,30.07
2022-08-12T12:48:28.740Z,30.07
2022-08-12T12:49:28.732Z,29.90
2022-08-12T12:50:35.264Z,29.92
2022-08-12T12:51:48.657Z,30.00
2022-08-12T12:52:29.960Z,30.11
2022-08-12T12:54:07.872Z,30.10
2022-08-12T12:54:29.676Z,29.76